CheckWX is a tool to help pilots better visualize weather data.  It is not intended as a substitute for an official pre-flight weather briefing.

17:31:26 UTC

MMVA TAF
Carlos Rovirosa Pérez International Airport
Villahermosa, Mexico
TAF MMVA 240502Z 2406/2506 03005KT 6SM HZ SKC TEMPO 2410/2414 BKN010 FM241700 06010KT P6SM SCT020 FM250300 06005KT 5SM HZ SCT015

Mar-24@
06:00 UTC

Mar-24 @ 06:00 UTC

Mar-24@
17:00 UTC

Mar-24 @ 17:00 UTC

TAF MMVA 240502Z 2406/2506 03005KT 6SM HZ SKC

Expired

Wind
  • 030° at 5 KTS
Conditions
Haze
Cloud Levels
  • Clear skies

Mar-24@
10:00 UTC

Mar-24 @ 10:00 UTC

Mar-24@
14:00 UTC

Mar-24 @ 14:00 UTC

TEMPO 2410/2414 BKN010

Expired

Cloud Levels
  • Broken at 1,000' AGL

Mar-24@
17:00 UTC

Mar-24 @ 17:00 UTC

Mar-25@
03:00 UTC

Mar-25 @ 03:00 UTC

FM241700 06010KT P6SM SCT020

From

From Standard forecast or significant change

Wind
  • 060° at 10 KTS
Cloud Levels
  • Scattered at 2,000' AGL

Mar-25@
03:00 UTC

Mar-25 @ 03:00 UTC

Mar-25@
06:00 UTC

Mar-25 @ 06:00 UTC

FM250300 06005KT 5SM HZ SCT015

From

From Standard forecast or significant change

Wind
  • 060° at 5 KTS
Conditions
Haze
Cloud Levels
  • Scattered at 1,500' AGL